sensor_id;sensor_type;location;lat;lon;timestamp;temperature;humidity
28552;DHT22;15752;49.560;8.708;2022-12-18T00:00:09;-2.50;94.90
28552;DHT22;15752;49.560;8.708;2022-12-18T00:02:43;-2.50;95.10
28552;DHT22;15752;49.560;8.708;2022-12-18T00:05:11;-2.50;94.80
28552;DHT22;15752;49.560;8.708;2022-12-18T00:07:40;-2.50;95.00
28552;DHT22;15752;49.560;8.708;2022-12-18T00:10:08;-2.50;95.00
28552;DHT22;15752;49.560;8.708;2022-12-18T00:12:42;-2.50;95.20
28552;DHT22;15752;49.560;8.708;2022-12-18T00:15:10;-2.60;95.10
28552;DHT22;15752;49.560;8.708;2022-12-18T00:17:39;-2.60;95.00
28552;DHT22;15752;49.560;8.708;2022-12-18T00:20:08;-2.50;95.00
28552;DHT22;15752;49.560;8.708;2022-12-18T00:22:37;-2.50;95.30
28552;DHT22;15752;49.560;8.708;2022-12-18T00:25:06;-2.30;94.90
28552;DHT22;15752;49.560;8.708;2022-12-18T00:27:35;-2.60;95.30
28552;DHT22;15752;49.560;8.708;2022-12-18T00:30:06;-2.50;95.10
28552;DHT22;15752;49.560;8.708;2022-12-18T00:32:35;-2.60;95.30
28552;DHT22;15752;49.560;8.708;2022-12-18T00:35:05;-2.20;95.10
28552;DHT22;15752;49.560;8.708;2022-12-18T00:37:34;-2.60;95.30
28552;DHT22;15752;49.560;8.708;2022-12-18T00:40:04;-2.60;95.10
28552;DHT22;15752;49.560;8.708;2022-12-18T00:42:34;-2.60;95.30
28552;DHT22;15752;49.560;8.708;2022-12-18T00:45:21;-2.60;94.90
28552;DHT22;15752;49.560;8.708;2022-12-18T00:47:50;-2.60;95.20
28552;DHT22;15752;49.560;8.708;2022-12-18T00:50:19;-2.30;95.10
28552;DHT22;15752;49.560;8.708;2022-12-18T00:52:47;-2.60;95.30
28552;DHT22;15752;49.560;8.708;2022-12-18T00:55:16;-2.60;95.00
28552;DHT22;15752;49.560;8.708;2022-12-18T00:57:46;-2.60;95.10
28552;DHT22;15752;49.560;8.708;2022-12-18T01:00:15;-2.50;95.00
28552;DHT22;15752;49.560;8.708;2022-12-18T01:02:45;-2.60;95.30
28552;DHT22;15752;49.560;8.708;2022-12-18T01:05:14;-2.60;95.10
28552;DHT22;15752;49.560;8.708;2022-12-18T01:07:43;-2.40;95.30
28552;DHT22;15752;49.560;8.708;2022-12-18T01:10:12;-2.60;95.00
28552;DHT22;15752;49.560;8.708;2022-12-18T01:12:41;-2.60;95.10
28552;DHT22;15752;49.560;8.708;2022-12-18T01:15:10;-2.70;95.10
28552;DHT22;15752;49.560;8.708;2022-12-18T01:17:40;-2.60;95.20
28552;DHT22;15752;49.560;8.708;2022-12-18T01:20:12;-2.20;95.20
28552;DHT22;15752;49.560;8.708;2022-12-18T01:22:41;-2.30;95.20
28552;DHT22;15752;49.560;8.708;2022-12-18T01:25:09;-2.60;94.80
28552;DHT22;15752;49.560;8.708;2022-12-18T01:27:37;-2.70;94.90
28552;DHT22;15752;49.560;8.708;2022-12-18T01:30:07;-2.60;94.70
28552;DHT22;15752;49.560;8.708;2022-12-18T01:32:36;-2.70;95.00
28552;DHT22;15752;49.560;8.708;2022-12-18T01:35:05;-2.70;94.80
28552;DHT22;15752;49.560;8.708;2022-12-18T01:37:36;-2.70;95.10
28552;DHT22;15752;49.560;8.708;2022-12-18T01:40:06;-2.70;94.80
28552;DHT22;15752;49.560;8.708;2022-12-18T01:42:35;-2.70;95.20
28552;DHT22;15752;49.560;8.708;2022-12-18T01:45:08;-2.80;94.80
28552;DHT22;15752;49.560;8.708;2022-12-18T01:47:53;-2.70;95.20
28552;DHT22;15752;49.560;8.708;2022-12-18T01:50:25;-2.80;95.10
28552;DHT22;15752;49.560;8.708;2022-12-18T01:53:00;-2.80;95.10
28552;DHT22;15752;49.560;8.708;2022-12-18T01:55:34;-2.80;95.00
28552;DHT22;15752;49.560;8.708;2022-12-18T01:58:04;-2.80;95.00
28552;DHT22;15752;49.560;8.708;2022-12-18T02:00:34;-2.80;95.30
28552;DHT22;15752;49.560;8.708;2022-12-18T02:03:02;-2.80;95.10
28552;DHT22;15752;49.560;8.708;2022-12-18T02:05:38;-2.80;94.90
28552;DHT22;15752;49.560;8.708;2022-12-18T02:08:16;-2.60;95.20
28552;DHT22;15752;49.560;8.708;2022-12-18T02:10:54;-2.90;95.10
28552;DHT22;15752;49.560;8.708;2022-12-18T02:13:32;-2.70;95.10
28552;DHT22;15752;49.560;8.708;2022-12-18T02:16:10;-2.90;95.00
28552;DHT22;15752;49.560;8.708;2022-12-18T02:18:47;-2.90;95.00
28552;DHT22;15752;49.560;8.708;2022-12-18T02:21:25;-2.90;95.10
28552;DHT22;15752;49.560;8.708;2022-12-18T02:24:14;-2.90;95.10
28552;DHT22;15752;49.560;8.708;2022-12-18T02:26:49;-2.90;95.10
28552;DHT22;15752;49.560;8.708;2022-12-18T02:29:25;-2.90;95.00
28552;DHT22;15752;49.560;8.708;2022-12-18T02:31:56;-2.90;95.10
28552;DHT22;15752;49.560;8.708;2022-12-18T02:34:29;-2.90;95.10
28552;DHT22;15752;49.560;8.708;2022-12-18T02:37:01;-2.90;95.10
28552;DHT22;15752;49.560;8.708;2022-12-18T02:39:37;-2.50;95.10
28552;DHT22;15752;49.560;8.708;2022-12-18T02:42:12;-2.90;95.00
28552;DHT22;15752;49.560;8.708;2022-12-18T02:44:45;-2.90;94.90
28552;DHT22;15752;49.560;8.708;2022-12-18T02:47:21;-2.90;95.10
28552;DHT22;15752;49.560;8.708;2022-12-18T02:49:57;-2.90;95.10
28552;DHT22;15752;49.560;8.708;2022-12-18T02:52:38;-2.90;95.10
28552;DHT22;15752;49.560;8.708;2022-12-18T02:55:22;-2.90;95.10
28552;DHT22;15752;49.560;8.708;2022-12-18T02:58:05;-2.70;95.20
28552;DHT22;15752;49.560;8.708;2022-12-18T03:00:43;-2.90;95.10
28552;DHT22;15752;49.560;8.708;2022-12-18T03:03:21;-2.60;95.10
28552;DHT22;15752;49.560;8.708;2022-12-18T03:05:55;-2.60;95.10
28552;DHT22;15752;49.560;8.708;2022-12-18T03:08:28;-3.00;94.90
28552;DHT22;15752;49.560;8.708;2022-12-18T03:11:02;-3.00;95.20
28552;DHT22;15752;49.560;8.708;2022-12-18T03:13:37;-3.00;94.90
28552;DHT22;15752;49.560;8.708;2022-12-18T03:16:13;-3.00;95.00
28552;DHT22;15752;49.560;8.708;2022-12-18T03:18:47;-3.00;94.90
28552;DHT22;15752;49.560;8.708;2022-12-18T03:21:21;-2.60;95.10
28552;DHT22;15752;49.560;8.708;2022-12-18T03:23:51;-3.00;95.00
28552;DHT22;15752;49.560;8.708;2022-12-18T03:26:25;-2.70;95.00
28552;DHT22;15752;49.560;8.708;2022-12-18T03:29:04;-3.00;95.00
28552;DHT22;15752;49.560;8.708;2022-12-18T03:31:37;-3.10;94.80
28552;DHT22;15752;49.560;8.708;2022-12-18T03:34:12;-3.10;94.90
28552;DHT22;15752;49.560;8.708;2022-12-18T03:36:45;-3.00;95.00
28552;DHT22;15752;49.560;8.708;2022-12-18T03:39:14;-3.10;94.80
28552;DHT22;15752;49.560;8.708;2022-12-18T03:41:54;-3.10;94.80
28552;DHT22;15752;49.560;8.708;2022-12-18T03:44:36;-3.10;94.90
28552;DHT22;15752;49.560;8.708;2022-12-18T03:47:13;-3.10;94.90
28552;DHT22;15752;49.560;8.708;2022-12-18T03:49:49;-2.70;95.00
28552;DHT22;15752;49.560;8.708;2022-12-18T03:52:23;-2.80;95.00
28552;DHT22;15752;49.560;8.708;2022-12-18T03:54:56;-3.10;95.00
28552;DHT22;15752;49.560;8.708;2022-12-18T03:57:28;-3.20;95.00
28552;DHT22;15752;49.560;8.708;2022-12-18T04:00:03;-3.20;95.00
28552;DHT22;15752;49.560;8.708;2022-12-18T04:02:43;-3.20;95.00
28552;DHT22;15752;49.560;8.708;2022-12-18T04:05:22;-3.20;94.90
28552;DHT22;15752;49.560;8.708;2022-12-18T04:07:52;-3.10;94.90
28552;DHT22;15752;49.560;8.708;2022-12-18T04:10:21;-2.80;95.00
28552;DHT22;15752;49.560;8.708;2022-12-18T04:12:50;-3.20;95.10
28552;DHT22;15752;49.560;8.708;2022-12-18T04:15:25;-3.20;94.90
28552;DHT22;15752;49.560;8.708;2022-12-18T04:17:55;-3.20;94.80
28552;DHT22;15752;49.560;8.708;2022-12-18T04:20:25;-3.20;94.80
28552;DHT22;15752;49.560;8.708;2022-12-18T04:22:53;-2.90;94.80
28552;DHT22;15752;49.560;8.708;2022-12-18T04:25:22;-3.20;94.70
28552;DHT22;15752;49.560;8.708;2022-12-18T04:28:04;-3.20;94.70
28552;DHT22;15752;49.560;8.708;2022-12-18T04:30:35;-2.90;94.80
28552;DHT22;15752;49.560;8.708;2022-12-18T04:33:07;-3.30;94.60
28552;DHT22;15752;49.560;8.708;2022-12-18T04:35:37;-3.20;95.00
28552;DHT22;15752;49.560;8.708;2022-12-18T04:38:07;-3.20;95.20
28552;DHT22;15752;49.560;8.708;2022-12-18T04:40:38;-3.00;95.00
28552;DHT22;15752;49.560;8.708;2022-12-18T04:43:14;-3.20;94.80
28552;DHT22;15752;49.560;8.708;2022-12-18T04:45:44;-3.30;94.70
28552;DHT22;15752;49.560;8.708;2022-12-18T04:48:13;-3.30;95.00
28552;DHT22;15752;49.560;8.708;2022-12-18T04:50:41;-3.30;94.60
28552;DHT22;15752;49.560;8.708;2022-12-18T04:53:09;-3.30;94.70
28552;DHT22;15752;49.560;8.708;2022-12-18T04:55:38;-3.30;94.70
28552;DHT22;15752;49.560;8.708;2022-12-18T04:58:06;-3.30;94.60
28552;DHT22;15752;49.560;8.708;2022-12-18T05:00:35;-3.30;94.60
28552;DHT22;15752;49.560;8.708;2022-12-18T05:03:05;-3.30;94.70
28552;DHT22;15752;49.560;8.708;2022-12-18T05:05:35;-2.90;94.70
28552;DHT22;15752;49.560;8.708;2022-12-18T05:08:04;-3.30;94.90
28552;DHT22;15752;49.560;8.708;2022-12-18T05:10:32;-2.90;94.60
28552;DHT22;15752;49.560;8.708;2022-12-18T05:13:04;-3.20;94.50
28552;DHT22;15752;49.560;8.708;2022-12-18T05:15:33;-3.30;94.60
28552;DHT22;15752;49.560;8.708;2022-12-18T05:18:05;-3.30;94.90
28552;DHT22;15752;49.560;8.708;2022-12-18T05:20:33;-2.90;94.80
28552;DHT22;15752;49.560;8.708;2022-12-18T05:23:02;-3.30;94.60
28552;DHT22;15752;49.560;8.708;2022-12-18T05:25:30;-3.00;94.60
28552;DHT22;15752;49.560;8.708;2022-12-18T05:27:58;-3.30;94.60
28552;DHT22;15752;49.560;8.708;2022-12-18T05:30:27;-3.40;94.70
28552;DHT22;15752;49.560;8.708;2022-12-18T05:32:55;-2.90;94.90
28552;DHT22;15752;49.560;8.708;2022-12-18T05:35:25;-3.30;94.70
28552;DHT22;15752;49.560;8.708;2022-12-18T05:37:53;-3.30;94.70
28552;DHT22;15752;49.560;8.708;2022-12-18T05:40:22;-3.30;94.70
28552;DHT22;15752;49.560;8.708;2022-12-18T05:42:50;-3.40;94.30
28552;DHT22;15752;49.560;8.708;2022-12-18T05:45:18;-3.30;94.40
28552;DHT22;15752;49.560;8.708;2022-12-18T05:47:47;-3.30;94.50
28552;DHT22;15752;49.560;8.708;2022-12-18T05:50:15;-3.00;94.50
28552;DHT22;15752;49.560;8.708;2022-12-18T05:52:45;-3.10;94.70
28552;DHT22;15752;49.560;8.708;2022-12-18T05:55:14;-3.40;94.50
28552;DHT22;15752;49.560;8.708;2022-12-18T05:57:42;-3.40;94.10
28552;DHT22;15752;49.560;8.708;2022-12-18T06:00:12;-3.20;94.10
28552;DHT22;15752;49.560;8.708;2022-12-18T06:02:45;-3.40;94.90
28552;DHT22;15752;49.560;8.708;2022-12-18T06:05:15;-3.10;95.00
28552;DHT22;15752;49.560;8.708;2022-12-18T06:07:44;-3.40;94.60
28552;DHT22;15752;49.560;8.708;2022-12-18T06:10:13;-3.40;94.60
28552;DHT22;15752;49.560;8.708;2022-12-18T06:12:41;-3.40;94.50
28552;DHT22;15752;49.560;8.708;2022-12-18T06:15:10;-3.40;94.60
28552;DHT22;15752;49.560;8.708;2022-12-18T06:17:39;-3.40;94.60
28552;DHT22;15752;49.560;8.708;2022-12-18T06:20:09;-3.10;94.60
28552;DHT22;15752;49.560;8.708;2022-12-18T06:22:37;-3.40;94.80
28552;DHT22;15752;49.560;8.708;2022-12-18T06:25:08;-3.40;94.60
28552;DHT22;15752;49.560;8.708;2022-12-18T06:27:36;-3.40;94.80
28552;DHT22;15752;49.560;8.708;2022-12-18T06:30:06;-3.40;94.70
28552;DHT22;15752;49.560;8.708;2022-12-18T06:32:35;-3.40;94.70
28552;DHT22;15752;49.560;8.708;2022-12-18T06:35:05;-3.40;94.30
28552;DHT22;15752;49.560;8.708;2022-12-18T06:37:34;-3.40;94.80
28552;DHT22;15752;49.560;8.708;2022-12-18T06:40:03;-3.20;94.60
28552;DHT22;15752;49.560;8.708;2022-12-18T06:42:33;-3.40;94.70
28552;DHT22;15752;49.560;8.708;2022-12-18T06:45:02;-3.40;94.60
28552;DHT22;15752;49.560;8.708;2022-12-18T06:47:30;-3.50;94.50
28552;DHT22;15752;49.560;8.708;2022-12-18T06:49:59;-3.50;94.20
28552;DHT22;15752;49.560;8.708;2022-12-18T06:52:27;-3.50;94.40
28552;DHT22;15752;49.560;8.708;2022-12-18T06:54:55;-3.20;94.60
28552;DHT22;15752;49.560;8.708;2022-12-18T06:57:24;-3.50;94.50
28552;DHT22;15752;49.560;8.708;2022-12-18T06:59:53;-3.20;94.50
28552;DHT22;15752;49.560;8.708;2022-12-18T07:02:22;-3.50;94.50
28552;DHT22;15752;49.560;8.708;2022-12-18T07:04:50;-3.30;94.10
28552;DHT22;15752;49.560;8.708;2022-12-18T07:07:19;-3.50;94.50
28552;DHT22;15752;49.560;8.708;2022-12-18T07:09:49;-3.50;94.40
28552;DHT22;15752;49.560;8.708;2022-12-18T07:12:18;-3.20;94.80
28552;DHT22;15752;49.560;8.708;2022-12-18T07:14:46;-3.30;94.60
28552;DHT22;15752;49.560;8.708;2022-12-18T07:17:16;-3.50;94.40
28552;DHT22;15752;49.560;8.708;2022-12-18T07:19:44;-3.10;94.50
28552;DHT22;15752;49.560;8.708;2022-12-18T07:22:13;-3.50;94.60
28552;DHT22;15752;49.560;8.708;2022-12-18T07:24:41;-3.50;94.50
28552;DHT22;15752;49.560;8.708;2022-12-18T07:27:09;-3.50;94.50
28552;DHT22;15752;49.560;8.708;2022-12-18T07:29:38;-3.50;94.40
28552;DHT22;15752;49.560;8.708;2022-12-18T07:32:06;-3.20;94.50
28552;DHT22;15752;49.560;8.708;2022-12-18T07:34:36;-3.40;94.70
28552;DHT22;15752;49.560;8.708;2022-12-18T07:37:05;-3.10;94.60
28552;DHT22;15752;49.560;8.708;2022-12-18T07:39:33;-3.50;94.70
28552;DHT22;15752;49.560;8.708;2022-12-18T07:42:01;-3.20;94.70
28552;DHT22;15752;49.560;8.708;2022-12-18T07:44:48;-3.40;94.80
28552;DHT22;15752;49.560;8.708;2022-12-18T07:47:17;-3.40;94.70
28552;DHT22;15752;49.560;8.708;2022-12-18T07:49:46;-3.50;94.70
28552;DHT22;15752;49.560;8.708;2022-12-18T07:52:15;-3.40;94.70
28552;DHT22;15752;49.560;8.708;2022-12-18T07:54:51;-3.40;94.70
28552;DHT22;15752;49.560;8.708;2022-12-18T07:57:19;-3.40;94.50
28552;DHT22;15752;49.560;8.708;2022-12-18T08:00:09;-3.40;94.60
28552;DHT22;15752;49.560;8.708;2022-12-18T08:02:39;-3.40;94.90
28552;DHT22;15752;49.560;8.708;2022-12-18T08:05:09;-3.40;94.60
28552;DHT22;15752;49.560;8.708;2022-12-18T08:07:38;-3.40;94.60
28552;DHT22;15752;49.560;8.708;2022-12-18T08:10:07;-3.40;94.50
28552;DHT22;15752;49.560;8.708;2022-12-18T08:12:36;-3.40;94.60
28552;DHT22;15752;49.560;8.708;2022-12-18T08:15:05;-3.40;94.40
28552;DHT22;15752;49.560;8.708;2022-12-18T08:17:34;-3.40;94.60
28552;DHT22;15752;49.560;8.708;2022-12-18T08:20:03;-3.40;94.40
28552;DHT22;15752;49.560;8.708;2022-12-18T08:22:37;-3.40;94.70
28552;DHT22;15752;49.560;8.708;2022-12-18T08:25:07;-3.10;94.70
28552;DHT22;15752;49.560;8.708;2022-12-18T08:27:36;-3.50;94.70
28552;DHT22;15752;49.560;8.708;2022-12-18T08:30:05;-3.30;94.40
28552;DHT22;15752;49.560;8.708;2022-12-18T08:32:35;-3.50;94.80
28552;DHT22;15752;49.560;8.708;2022-12-18T08:35:04;-3.50;94.60
28552;DHT22;15752;49.560;8.708;2022-12-18T08:37:36;-3.50;94.70
28552;DHT22;15752;49.560;8.708;2022-12-18T08:40:05;-3.40;94.70
28552;DHT22;15752;49.560;8.708;2022-12-18T08:42:35;-3.50;94.90
28552;DHT22;15752;49.560;8.708;2022-12-18T08:45:20;-3.10;94.70
28552;DHT22;15752;49.560;8.708;2022-12-18T08:47:49;-3.50;94.80
28552;DHT22;15752;49.560;8.708;2022-12-18T08:50:17;-3.50;94.90
28552;DHT22;15752;49.560;8.708;2022-12-18T08:52:48;-3.40;94.90
28552;DHT22;15752;49.560;8.708;2022-12-18T08:55:16;-3.40;94.50
28552;DHT22;15752;49.560;8.708;2022-12-18T08:57:48;-3.40;94.70
28552;DHT22;15752;49.560;8.708;2022-12-18T09:00:17;-3.40;94.70
28552;DHT22;15752;49.560;8.708;2022-12-18T09:02:46;-3.40;94.90
28552;DHT22;15752;49.560;8.708;2022-12-18T09:05:15;-3.30;95.00
28552;DHT22;15752;49.560;8.708;2022-12-18T09:07:43;-3.10;94.80
28552;DHT22;15752;49.560;8.708;2022-12-18T09:10:14;-3.30;94.90
28552;DHT22;15752;49.560;8.708;2022-12-18T09:12:43;-3.30;95.00
28552;DHT22;15752;49.560;8.708;2022-12-18T09:15:11;-3.30;94.70
28552;DHT22;15752;49.560;8.708;2022-12-18T09:17:39;-3.30;94.70
28552;DHT22;15752;49.560;8.708;2022-12-18T09:20:09;-3.30;94.80
28552;DHT22;15752;49.560;8.708;2022-12-18T09:22:38;-3.30;95.20
28552;DHT22;15752;49.560;8.708;2022-12-18T09:25:06;-3.20;94.90
28552;DHT22;15752;49.560;8.708;2022-12-18T09:27:36;-3.20;95.00
28552;DHT22;15752;49.560;8.708;2022-12-18T09:30:07;-3.20;95.20
28552;DHT22;15752;49.560;8.708;2022-12-18T09:32:36;-3.20;95.40
28552;DHT22;15752;49.560;8.708;2022-12-18T09:35:05;-3.10;95.00
28552;DHT22;15752;49.560;8.708;2022-12-18T09:37:34;-3.10;95.40
28552;DHT22;15752;49.560;8.708;2022-12-18T09:40:03;-2.70;95.30
28552;DHT22;15752;49.560;8.708;2022-12-18T09:42:32;-3.00;95.50
28552;DHT22;15752;49.560;8.708;2022-12-18T09:45:03;-3.00;95.40
28552;DHT22;15752;49.560;8.708;2022-12-18T09:47:35;-3.00;95.60
28552;DHT22;15752;49.560;8.708;2022-12-18T09:50:17;-3.00;95.60
28552;DHT22;15752;49.560;8.708;2022-12-18T09:52:52;-2.90;95.70
28552;DHT22;15752;49.560;8.708;2022-12-18T09:55:29;-2.90;95.60
28552;DHT22;15752;49.560;8.708;2022-12-18T09:58:07;-2.70;95.60
28552;DHT22;15752;49.560;8.708;2022-12-18T10:00:43;-2.80;95.80
28552;DHT22;15752;49.560;8.708;2022-12-18T10:03:13;-2.80;95.50
28552;DHT22;15752;49.560;8.708;2022-12-18T10:05:49;-2.70;95.80
28552;DHT22;15752;49.560;8.708;2022-12-18T10:08:32;-2.70;96.00
28552;DHT22;15752;49.560;8.708;2022-12-18T10:11:23;-2.70;96.00
28552;DHT22;15752;49.560;8.708;2022-12-18T10:14:06;-2.60;96.10
28552;DHT22;15752;49.560;8.708;2022-12-18T10:16:47;-2.50;96.10
28552;DHT22;15752;49.560;8.708;2022-12-18T10:19:40;-2.50;96.10
28552;DHT22;15752;49.560;8.708;2022-12-18T10:22:24;-2.50;96.50
28552;DHT22;15752;49.560;8.708;2022-12-18T10:25:01;-2.20;96.20
28552;DHT22;15752;49.560;8.708;2022-12-18T10:27:32;-2.10;96.30
28552;DHT22;15752;49.560;8.708;2022-12-18T10:30:07;-1.80;96.10
28552;DHT22;15752;49.560;8.708;2022-12-18T10:32:50;-2.20;96.20
28552;DHT22;15752;49.560;8.708;2022-12-18T10:35:20;-2.20;96.10
28552;DHT22;15752;49.560;8.708;2022-12-18T10:38:00;-2.10;96.20
28552;DHT22;15752;49.560;8.708;2022-12-18T10:40:31;-2.10;96.40
28552;DHT22;15752;49.560;8.708;2022-12-18T10:43:04;-2.00;96.30
28552;DHT22;15752;49.560;8.708;2022-12-18T10:45:34;-1.80;96.40
28552;DHT22;15752;49.560;8.708;2022-12-18T10:48:04;-1.90;96.20
28552;DHT22;15752;49.560;8.708;2022-12-18T10:50:33;-1.80;96.50
28552;DHT22;15752;49.560;8.708;2022-12-18T10:53:25;-1.80;96.50
28552;DHT22;15752;49.560;8.708;2022-12-18T10:55:56;-1.30;96.70
28552;DHT22;15752;49.560;8.708;2022-12-18T10:58:28;-1.60;96.70
28552;DHT22;15752;49.560;8.708;2022-12-18T11:01:06;-1.60;96.70
28552;DHT22;15752;49.560;8.708;2022-12-18T11:03:39;-1.40;96.90
28552;DHT22;15752;49.560;8.708;2022-12-18T11:06:10;-1.50;96.90
28552;DHT22;15752;49.560;8.708;2022-12-18T11:08:41;-1.40;97.10
28552;DHT22;15752;49.560;8.708;2022-12-18T11:11:21;-1.10;97.20
28552;DHT22;15752;49.560;8.708;2022-12-18T11:13:59;-1.30;97.30
28552;DHT22;15752;49.560;8.708;2022-12-18T11:16:34;-1.20;97.40
28552;DHT22;15752;49.560;8.708;2022-12-18T11:19:18;-1.10;97.40
28552;DHT22;15752;49.560;8.708;2022-12-18T11:21:54;-1.00;97.50
28552;DHT22;15752;49.560;8.708;2022-12-18T11:24:27;-1.00;97.20
28552;DHT22;15752;49.560;8.708;2022-12-18T11:27:00;-0.90;97.50
28552;DHT22;15752;49.560;8.708;2022-12-18T11:29:35;-0.80;97.40
28552;DHT22;15752;49.560;8.708;2022-12-18T11:32:28;-0.80;97.40
28552;DHT22;15752;49.560;8.708;2022-12-18T11:35:12;-0.70;97.70
28552;DHT22;15752;49.560;8.708;2022-12-18T11:37:47;-0.60;97.60
28552;DHT22;15752;49.560;8.708;2022-12-18T11:40:21;-0.60;97.40
28552;DHT22;15752;49.560;8.708;2022-12-18T11:42:58;-0.50;97.50
28552;DHT22;15752;49.560;8.708;2022-12-18T11:45:33;-0.50;97.50
28552;DHT22;15752;49.560;8.708;2022-12-18T11:48:08;-0.40;97.50
28552;DHT22;15752;49.560;8.708;2022-12-18T11:50:49;-0.40;97.40
28552;DHT22;15752;49.560;8.708;2022-12-18T11:53:19;0.00;97.50
28552;DHT22;15752;49.560;8.708;2022-12-18T11:56:04;-0.30;97.30
28552;DHT22;15752;49.560;8.708;2022-12-18T11:58:47;-0.30;97.40
28552;DHT22;15752;49.560;8.708;2022-12-18T12:01:28;-0.20;97.20
28552;DHT22;15752;49.560;8.708;2022-12-18T12:04:38;-0.20;97.20
28552;DHT22;15752;49.560;8.708;2022-12-18T12:07:24;-0.20;97.20
28552;DHT22;15752;49.560;8.708;2022-12-18T12:10:09;-0.20;97.20
28552;DHT22;15752;49.560;8.708;2022-12-18T12:12:59;-0.20;97.10
28552;DHT22;15752;49.560;8.708;2022-12-18T12:15:44;-0.20;97.00
28552;DHT22;15752;49.560;8.708;2022-12-18T12:18:28;0.10;97.10
28552;DHT22;15752;49.560;8.708;2022-12-18T12:21:08;-0.10;97.10
28552;DHT22;15752;49.560;8.708;2022-12-18T12:23:45;-0.10;96.70
28552;DHT22;15752;49.560;8.708;2022-12-18T12:26:24;-0.10;96.90
28552;DHT22;15752;49.560;8.708;2022-12-18T12:29:06;-0.10;97.00
28552;DHT22;15752;49.560;8.708;2022-12-18T12:32:00;-0.10;97.00
28552;DHT22;15752;49.560;8.708;2022-12-18T12:34:36;0.00;97.20
28552;DHT22;15752;49.560;8.708;2022-12-18T12:37:18;-0.10;97.10
28552;DHT22;15752;49.560;8.708;2022-12-18T12:39:54;0.00;97.10
28552;DHT22;15752;49.560;8.708;2022-12-18T12:42:30;0.00;96.40
28552;DHT22;15752;49.560;8.708;2022-12-18T12:45:22;0.00;97.10
28552;DHT22;15752;49.560;8.708;2022-12-18T12:47:55;0.10;97.10
28552;DHT22;15752;49.560;8.708;2022-12-18T12:50:25;0.10;97.10
28552;DHT22;15752;49.560;8.708;2022-12-18T12:52:55;0.10;97.10
28552;DHT22;15752;49.560;8.708;2022-12-18T12:55:28;0.40;97.20
28552;DHT22;15752;49.560;8.708;2022-12-18T12:58:06;0.20;97.10
28552;DHT22;15752;49.560;8.708;2022-12-18T13:00:40;0.20;97.20
28552;DHT22;15752;49.560;8.708;2022-12-18T13:03:20;0.20;97.20
28552;DHT22;15752;49.560;8.708;2022-12-18T13:06:00;0.30;97.20
28552;DHT22;15752;49.560;8.708;2022-12-18T13:08:52;0.30;97.20
28552;DHT22;15752;49.560;8.708;2022-12-18T13:11:34;0.30;97.40
28552;DHT22;15752;49.560;8.708;2022-12-18T13:14:29;0.30;97.30
28552;DHT22;15752;49.560;8.708;2022-12-18T13:17:28;0.30;97.20
28552;DHT22;15752;49.560;8.708;2022-12-18T13:20:07;0.40;97.70
28552;DHT22;15752;49.560;8.708;2022-12-18T13:22:40;0.40;97.40
28552;DHT22;15752;49.560;8.708;2022-12-18T13:25:28;0.40;97.30
28552;DHT22;15752;49.560;8.708;2022-12-18T13:28:08;0.60;97.50
28552;DHT22;15752;49.560;8.708;2022-12-18T13:30:49;0.40;97.40
28552;DHT22;15752;49.560;8.708;2022-12-18T13:33:47;0.50;97.40
28552;DHT22;15752;49.560;8.708;2022-12-18T13:36:36;0.80;97.40
28552;DHT22;15752;49.560;8.708;2022-12-18T13:39:31;0.60;97.20
28552;DHT22;15752;49.560;8.708;2022-12-18T13:45:47;0.70;97.50
28552;DHT22;15752;49.560;8.708;2022-12-18T13:48:18;0.70;97.40
28552;DHT22;15752;49.560;8.708;2022-12-18T13:50:59;0.70;97.30
28552;DHT22;15752;49.560;8.708;2022-12-18T13:53:39;0.80;97.40
28552;DHT22;15752;49.560;8.708;2022-12-18T13:56:15;1.10;97.40
28552;DHT22;15752;49.560;8.708;2022-12-18T13:58:44;0.90;97.40
28552;DHT22;15752;49.560;8.708;2022-12-18T14:01:24;0.90;97.10
28552;DHT22;15752;49.560;8.708;2022-12-18T14:04:10;0.90;97.40
28552;DHT22;15752;49.560;8.708;2022-12-18T14:06:40;1.00;97.50
28552;DHT22;15752;49.560;8.708;2022-12-18T14:09:14;1.00;97.30
28552;DHT22;15752;49.560;8.708;2022-12-18T14:11:48;1.00;97.50
28552;DHT22;15752;49.560;8.708;2022-12-18T14:14:18;1.10;97.40
28552;DHT22;15752;49.560;8.708;2022-12-18T14:16:48;1.10;97.30
28552;DHT22;15752;49.560;8.708;2022-12-18T14:19:18;1.10;97.10
28552;DHT22;15752;49.560;8.708;2022-12-18T14:21:47;1.10;97.20
28552;DHT22;15752;49.560;8.708;2022-12-18T14:24:19;1.10;97.20
28552;DHT22;15752;49.560;8.708;2022-12-18T14:26:49;1.20;97.30
28552;DHT22;15752;49.560;8.708;2022-12-18T14:29:21;1.40;97.40
28552;DHT22;15752;49.560;8.708;2022-12-18T14:32:06;1.40;97.30
28552;DHT22;15752;49.560;8.708;2022-12-18T14:34:43;1.50;97.70
28552;DHT22;15752;49.560;8.708;2022-12-18T14:37:15;1.40;97.20
28552;DHT22;15752;49.560;8.708;2022-12-18T14:39:57;1.20;97.20
28552;DHT22;15752;49.560;8.708;2022-12-18T14:42:36;1.20;97.20
28552;DHT22;15752;49.560;8.708;2022-12-18T14:45:34;1.20;97.10
28552;DHT22;15752;49.560;8.708;2022-12-18T14:48:16;1.20;97.20
28552;DHT22;15752;49.560;8.708;2022-12-18T14:51:01;1.20;97.10
28552;DHT22;15752;49.560;8.708;2022-12-18T14:53:36;1.20;97.10
28552;DHT22;15752;49.560;8.708;2022-12-18T14:56:15;1.20;97.20
28552;DHT22;15752;49.560;8.708;2022-12-18T14:58:47;1.20;97.10
28552;DHT22;15752;49.560;8.708;2022-12-18T15:01:21;1.10;97.00
28552;DHT22;15752;49.560;8.708;2022-12-18T15:03:55;1.10;97.00
28552;DHT22;15752;49.560;8.708;2022-12-18T15:06:33;1.10;97.00
28552;DHT22;15752;49.560;8.708;2022-12-18T15:09:20;1.10;97.10
28552;DHT22;15752;49.560;8.708;2022-12-18T15:12:01;1.20;96.50
28552;DHT22;15752;49.560;8.708;2022-12-18T15:14:41;1.20;96.60
28552;DHT22;15752;49.560;8.708;2022-12-18T15:17:23;1.30;96.30
28552;DHT22;15752;49.560;8.708;2022-12-18T15:19:59;1.10;96.80
28552;DHT22;15752;49.560;8.708;2022-12-18T15:22:32;1.10;96.90
28552;DHT22;15752;49.560;8.708;2022-12-18T15:27:51;1.00;96.50
28552;DHT22;15752;49.560;8.708;2022-12-18T15:30:22;1.00;96.50
28552;DHT22;15752;49.560;8.708;2022-12-18T15:32:52;1.00;96.90
28552;DHT22;15752;49.560;8.708;2022-12-18T15:35:24;1.00;96.90
28552;DHT22;15752;49.560;8.708;2022-12-18T15:37:53;1.00;96.70
28552;DHT22;15752;49.560;8.708;2022-12-18T15:40:22;1.00;96.70
28552;DHT22;15752;49.560;8.708;2022-12-18T15:42:53;1.00;96.90
28552;DHT22;15752;49.560;8.708;2022-12-18T15:45:40;1.00;96.80
28552;DHT22;15752;49.560;8.708;2022-12-18T15:48:19;1.00;96.70
28552;DHT22;15752;49.560;8.708;2022-12-18T15:50:52;1.00;96.90
28552;DHT22;15752;49.560;8.708;2022-12-18T15:53:24;1.30;97.00
28552;DHT22;15752;49.560;8.708;2022-12-18T15:55:53;1.00;96.80
28552;DHT22;15752;49.560;8.708;2022-12-18T15:58:42;1.10;96.40
28552;DHT22;15752;49.560;8.708;2022-12-18T16:01:11;0.90;96.80
28552;DHT22;15752;49.560;8.708;2022-12-18T16:03:40;1.00;96.90
28552;DHT22;15752;49.560;8.708;2022-12-18T16:06:10;1.20;96.80
28552;DHT22;15752;49.560;8.708;2022-12-18T16:08:45;0.90;96.40
28552;DHT22;15752;49.560;8.708;2022-12-18T16:11:21;1.20;97.00
28552;DHT22;15752;49.560;8.708;2022-12-18T16:14:12;0.90;97.00
28552;DHT22;15752;49.560;8.708;2022-12-18T16:16:45;1.20;97.00
28552;DHT22;15752;49.560;8.708;2022-12-18T16:19:14;0.90;96.90
28552;DHT22;15752;49.560;8.708;2022-12-18T16:21:45;0.90;96.80